Date,TemperatureHighF,TemperatureAvgF,TemperatureLowF,DewpointHighF,DewpointAvgF,DewpointLowF,HumidityHigh,HumidityAvg,HumidityLow,PressureMaxIn,PressureMinIn,WindSpeedMaxMPH,WindSpeedAvgMPH,GustSpeedMaxMPH,PrecipitationSumIn
2013-1-1,39.3,36.8,34.4,38.0,35.2,32.0,97,94,87,30.52,30.37,5,1,9,0.00
2013-1-2,39.5,36.0,33.5,37.0,33.3,31.0,94,90,84,30.37,30.21,3,0,6,0.01
2013-1-3,40.8,36.4,32.0,38.0,32.8,30.0,96,87,71,30.20,30.09,3,0,7,0.01
2013-1-4,43.8,42.0,40.0,43.0,41.2,38.0,99,97,93,30.30,30.12,2,0,8,0.01
2013-1-5,44.7,42.0,39.9,43.0,41.0,39.0,99,96,86,30.18,30.05,5,1,15,0.01
2013-1-6,43.5,41.6,39.0,42.0,40.7,38.0,99,96,90,30.13,29.92,5,1,9,0.00
2013-1-7,48.6,43.7,40.6,48.0,42.8,40.0,100,96,85,30.12,29.76,14,2,18,0.01
2013-1-8,47.5,43.3,39.3,48.0,42.7,39.0,100,97,91,30.14,29.63,5,1,12,0.01
2013-1-9,44.7,41.6,36.9,44.0,39.1,35.0,98,91,79,29.92,29.63,17,2,17,0.01
2013-1-10,40.1,37.8,35.2,37.0,34.9,26.0,100,89,64,30.14,29.92,9,2,13,0.01
2013-1-11,35.2,33.2,30.5,27.0,23.6,20.0,86,68,57,30.33,30.14,6,2,11,0.00
2013-1-12,33.6,31.1,29.0,28.0,27.0,23.0,92,85,69,30.45,30.32,4,1,8,0.00
2013-1-13,35.5,32.5,29.7,32.0,29.1,26.0,91,87,83,30.49,30.44,3,0,5,0.00
2013-1-14,37.0,35.4,34.6,35.0,33.6,31.0,98,93,85,30.58,30.46,3,0,7,0.10
2013-1-15,39.8,37.2,34.7,37.0,35.2,34.0,98,93,85,30.71,30.58,2,0,6,0.03
2013-1-16,39.2,38.0,36.6,36.0,34.9,34.0,92,88,82,30.68,30.53,7,2,7,0.03
2013-1-17,39.4,36.9,34.7,37.0,35.1,34.0,98,93,89,30.54,30.29,4,1,6,0.02
2013-1-18,40.4,38.0,35.0,39.0,36.9,35.0,99,96,91,30.35,30.26,4,1,6,0.02
2013-1-19,40.1,38.7,36.2,39.0,37.3,35.0,97,94,91,30.39,30.34,8,4,11,0.01
2013-1-20,39.8,38.5,37.3,39.0,37.7,37.0,98,97,93,30.40,30.28,8,4,12,0.02
2013-1-21,38.3,36.6,33.9,38.0,36.0,33.0,99,98,95,30.28,30.13,7,2,10,0.01
2013-1-22,39.8,36.7,33.6,38.0,35.3,33.0,99,94,88,30.14,29.91,3,0,4,0.01
2013-1-23,42.3,40.6,38.7,42.0,39.8,37.0,99,97,90,30.09,29.80,3,0,8,0.01
2013-1-24,43.7,41.0,38.0,42.0,39.5,38.0,99,94,83,30.18,29.98,5,1,12,0.00
2013-1-25,48.1,42.9,39.7,44.0,41.8,39.0,99,96,83,30.04,29.87,5,1,7,0.00
2013-1-26,43.4,41.7,40.3,43.0,40.6,39.0,99,95,87,30.01,29.82,5,1,9,0.00
2013-1-27,40.7,39.7,37.9,41.0,39.5,38.0,99,99,99,30.02,29.95,3,0,7,0.00
2013-1-28,41.4,39.8,38.3,41.0,39.5,38.0,100,99,98,30.04,29.96,5,1,5,0.00
2013-1-29,45.1,42.3,40.0,45.0,41.9,40.0,100,98,96,30.29,30.04,5,0,7,0.01
2013-1-30,46.1,44.2,43.2,46.0,44.0,43.0,100,99,98,30.36,30.29,3,0,6,0.00
2013-1-31,46.6,44.8,43.2,47.0,44.7,43.0,100,100,99,30.36,30.27,5,1,8,0.00
2013-2-1,45.4,43.9,42.6,45.0,43.6,42.0,100,98,95,30.43,30.33,5,1,6,0.00
2013-2-2,42.9,41.6,40.7,43.0,40.9,40.0,100,96,92,30.41,30.24,6,2,9,0.00
2013-2-3,45.8,42.5,40.4,44.0,41.7,40.0,99,97,91,30.29,30.17,5,0,7,0.00
2013-2-4,45.5,43.4,41.8,44.0,42.7,41.0,100,97,90,30.17,29.83,3,0,9,0.00
2013-2-5,48.2,44.4,42.0,45.0,42.8,41.0,99,94,87,29.87,29.75,3,1,12,0.00
2013-2-6,47.9,44.0,41.2,43.0,41.6,40.0,99,91,74,29.98,29.70,6,1,19,0.00
2013-2-7,47.6,42.8,38.5,41.0,38.9,37.0,96,86,69,30.19,29.70,8,1,17,0.00
2013-2-8,44.0,40.8,37.3,41.0,38.9,36.0,98,92,86,30.30,30.19,3,0,5,0.00
2013-2-9,43.8,41.6,39.7,42.0,39.9,37.0,96,93,90,30.34,30.25,2,0,3,0.00
2013-2-10,44.3,40.6,36.3,40.0,38.7,36.0,99,93,85,30.38,30.32,3,0,5,0.00
2013-2-11,43.8,42.3,41.1,43.0,41.4,39.0,99,96,93,30.33,30.30,2,0,6,0.00
2013-2-12,48.0,44.8,42.5,46.0,43.8,42.0,100,96,81,30.38,30.23,7,1,13,0.00
2013-2-13,49.9,45.2,42.4,44.0,41.0,39.0,92,85,75,30.47,30.26,6,1,11,0.00
2013-2-14,44.3,43.1,41.7,44.0,42.5,40.0,99,97,89,30.57,30.46,4,0,6,0.00
2013-2-15,45.2,43.6,42.8,44.0,42.6,41.0,99,96,88,30.57,30.17,6,2,9,0.00
2013-2-16,47.8,44.3,40.7,44.0,41.2,39.0,99,89,78,30.17,30.09,6,1,13,0.00
2013-2-17,45.5,41.1,37.9,41.0,39.2,37.0,97,93,79,30.22,30.10,5,0,6,0.00
2013-2-18,44.0,40.9,37.3,40.0,38.2,37.0,98,90,82,30.09,29.74,4,1,9,0.00
2013-2-19,44.4,41.0,38.9,40.0,37.3,33.0,97,87,78,29.99,29.73,6,1,11,0.00
2013-2-20,42.7,39.9,37.0,41.0,38.8,36.0,99,96,90,30.01,29.97,3,0,6,0.00
2013-2-21,45.3,42.1,39.5,41.0,40.0,38.0,97,92,85,30.02,29.96,5,1,9,0.00
2013-2-22,45.4,41.6,39.5,45.0,39.9,36.0,99,93,76,30.01,29.62,7,2,22,0.00
2013-2-23,48.6,42.1,37.8,42.0,38.0,36.0,95,85,69,30.32,29.83,4,0,9,0.00
2013-2-24,45.1,43.2,40.3,40.0,38.9,36.0,93,85,80,30.34,29.83,13,2,24,0.00
2013-2-25,49.8,43.5,40.2,40.0,37.7,35.0,97,80,60,30.26,29.80,16,3,22,0.00
2013-2-26,44.8,42.2,39.2,40.0,37.7,36.0,95,84,72,30.31,30.12,6,1,16,0.00
2013-2-27,46.8,41.8,38.8,42.0,39.5,38.0,99,92,77,30.30,30.16,3,0,6,0.00
2013-2-28,48.3,43.6,40.1,48.0,42.9,38.0,99,97,92,30.27,30.17,4,0,9,0.00
2013-3-1,51.5,49.2,47.0,51.0,49.0,47.0,100,99,95,30.26,30.20,5,1,8,0.00
2013-3-2,51.1,46.0,38.2,51.0,44.8,36.0,100,95,83,30.22,30.02,5,1,8,0.00
2013-3-3,47.2,40.6,35.8,39.0,35.9,33.0,95,83,64,30.30,30.16,5,1,8,0.00
2013-3-4,44.4,40.4,36.6,40.0,36.4,32.0,97,86,69,30.31,29.95,7,1,12,0.00
2013-3-5,47.5,43.5,40.6,41.0,35.2,30.0,97,74,60,29.95,29.75,6,1,10,0.00
2013-3-6,42.5,41.4,40.3,41.0,40.2,40.0,98,96,92,29.87,29.63,8,3,11,0.00
2013-3-7,47.3,42.2,40.0,45.0,41.6,40.0,99,97,87,30.11,29.87,2,0,6,0.00
2013-3-8,48.6,42.7,39.8,44.0,40.9,38.0,99,93,82,30.24,30.09,6,1,7,0.00
2013-3-9,52.1,42.9,37.6,44.0,40.2,37.0,99,90,71,30.48,30.24,6,2,7,0.00
2013-3-10,46.1,43.3,40.7,44.0,41.5,40.0,98,93,86,30.48,30.42,5,1,6,0.00
2013-3-11,47.8,43.4,39.8,45.0,41.9,39.0,99,94,81,30.43,30.09,4,0,7,0.00
2013-3-12,51.5,48.2,45.1,52.0,48.1,45.0,100,99,98,30.10,29.95,5,1,9,0.00
2013-3-13,49.9,49.0,48.3,50.0,48.6,48.0,100,99,98,30.14,30.02,5,1,9,0.00
2013-3-14,50.6,48.4,46.8,49.0,47.8,47.0,100,98,89,30.11,29.99,5,0,7,0.00
2013-3-15,55.8,48.8,45.8,51.0,47.8,45.0,100,96,83,30.19,30.10,5,0,9,0.00
2013-3-16,47.7,44.2,38.3,46.0,41.7,36.0,99,91,71,30.10,29.84,6,2,12,0.00
2013-3-17,48.4,41.7,36.9,38.0,34.8,33.0,90,77,57,30.14,29.93,4,1,16,0.00
2013-3-18,49.5,41.5,37.4,40.0,36.8,33.0,98,84,63,30.24,30.04,5,1,11,0.00
2013-3-19,48.7,42.5,36.4,42.0,36.9,33.0,91,81,63,30.23,29.52,4,1,13,0.00
2013-3-20,50.6,45.7,38.9,49.0,40.7,32.0,98,83,67,29.95,29.28,7,2,29,0.00
2013-3-21,47.7,40.6,36.7,40.0,35.7,33.0,96,83,66,30.19,29.96,5,1,10,0.00
2013-3-22,45.9,40.3,36.2,36.0,33.0,30.0,89,75,61,30.37,30.19,5,2,7,0.00
2013-3-23,49.3,40.7,35.6,38.0,33.9,31.0,92,77,58,30.39,30.31,3,1,6,0.00
2013-3-24,48.6,42.4,35.9,39.0,35.7,31.0,89,77,62,30.31,30.14,3,1,7,0.00
2013-3-25,53.1,45.5,38.8,43.0,37.4,29.0,94,75,48,30.14,29.96,3,0,5,0.00
2013-3-26,54.8,46.4,42.2,45.0,39.8,32.0,92,79,56,30.03,29.97,2,0,5,0.00
2013-3-27,55.4,47.7,42.4,47.0,42.8,39.0,95,83,67,30.00,29.96,5,1,8,0.00
2013-3-28,58.1,49.1,43.3,48.0,44.5,42.0,96,85,67,30.14,30.00,6,1,7,0.00
2013-3-29,59.6,48.7,43.7,49.0,45.2,43.0,98,89,66,30.27,30.14,6,1,9,0.00
2013-3-30,59.3,50.6,43.1,48.0,44.2,41.0,98,80,60,30.28,30.10,7,2,9,0.00
2013-3-31,64.0,53.4,47.8,46.0,43.4,38.0,90,70,41,30.10,29.92,6,2,12,0.00
2013-4-1,57.6,50.5,45.1,50.0,45.2,39.0,94,83,63,30.11,29.95,6,2,10,0.00
2013-4-2,54.8,48.8,45.4,47.0,44.8,44.0,94,86,69,30.20,30.11,5,1,7,0.00
2013-4-3,54.9,50.4,46.5,49.0,45.6,43.0,93,84,73,30.19,29.97,5,1,6,0.00
2013-4-4,52.0,49.3,48.1,52.0,47.4,44.0,99,93,79,29.96,29.56,4,1,8,0.00
2013-4-5,58.2,50.9,46.8,52.0,48.9,45.0,99,93,78,29.82,29.63,4,1,11,0.00
2013-4-6,56.9,49.5,44.2,47.0,43.3,39.0,94,80,55,29.87,29.59,8,2,15,0.00
2013-4-7,49.9,44.8,42.0,48.0,43.7,41.0,98,96,89,29.85,29.56,6,1,8,0.00
2013-4-8,56.1,47.5,43.9,48.0,44.7,43.0,98,90,71,30.24,29.86,4,1,6,0.00
2013-4-9,50.6,46.6,43.5,46.0,44.4,42.0,96,92,78,30.33,30.11,6,1,7,0.00
2013-4-10,54.9,49.3,45.9,50.0,45.4,42.0,98,87,72,30.21,29.85,9,2,19,0.00
2013-4-11,55.3,46.7,41.0,44.0,40.3,36.0,93,79,54,30.29,30.17,4,1,9,0.00
2013-4-12,43.7,41.5,39.9,43.0,39.4,35.0,100,92,80,30.17,29.65,8,1,16,0.00
2013-4-13,50.3,43.4,38.1,44.0,39.8,32.0,97,87,74,29.98,29.71,4,1,9,0.00
2013-4-14,52.6,44.0,38.9,44.0,39.9,37.0,100,86,60,30.00,29.93,3,0,5,0.00
2013-4-15,56.2,45.8,40.8,46.0,41.5,37.0,96,85,65,30.18,29.93,6,1,10,0.00
2013-4-16,60.2,48.3,40.4,46.0,38.2,32.0,93,70,43,30.38,30.18,5,1,8,0.00
2013-4-17,56.6,48.8,43.3,46.0,40.7,33.0,88,74,54,30.43,30.38,6,2,10,0.00
2013-4-18,48.3,45.6,42.9,47.0,44.3,40.0,99,95,80,30.43,30.17,3,0,10,0.00
2013-4-19,58.4,50.2,47.4,54.0,49.2,45.0,99,96,82,30.17,30.05,10,1,15,0.00
2013-4-20,59.8,50.9,45.7,48.0,44.5,42.0,94,80,60,30.23,30.15,7,1,13,0.00
2013-4-21,51.9,46.7,41.7,45.0,41.5,39.0,94,82,64,30.39,30.21,7,1,13,0.00
2013-4-22,60.0,48.8,41.6,44.0,36.0,21.0,92,64,35,30.57,30.39,5,2,9,0.00
2013-4-23,59.4,49.8,42.9,45.0,39.4,27.0,84,68,46,30.43,30.27,5,1,7,0.00
2013-4-24,66.1,52.2,43.7,46.0,41.6,38.0,94,69,41,30.33,30.05,3,0,5,0.00
2013-4-25,66.7,53.4,47.0,48.0,44.7,40.0,91,73,49,30.11,30.04,9,2,10,0.00
2013-4-26,60.5,50.4,44.4,48.0,45.1,43.0,97,83,56,30.25,30.11,9,4,11,0.00
2013-4-27,53.0,50.3,47.5,50.0,46.5,43.0,92,87,78,30.19,30.11,8,2,13,0.00
2013-4-28,56.0,49.4,44.2,44.0,41.9,39.0,95,76,58,30.19,29.91,4,1,11,0.00
2013-4-29,56.4,46.7,41.1,44.0,39.5,35.0,97,78,47,30.14,29.91,6,2,13,0.00
2013-4-30,57.9,47.0,41.8,40.0,36.8,33.0,88,69,43,30.43,30.14,8,2,8,0.00
2013-5-1,59.1,48.6,40.7,45.0,39.1,32.0,93,71,43,30.60,30.43,6,1,7,0.00
2013-5-2,57.6,51.6,44.2,47.0,41.5,32.0,93,70,55,30.56,30.40,5,2,9,0.00
2013-5-3,68.5,57.0,50.0,50.0,46.4,41.0,90,70,47,30.42,30.25,9,3,13,0.00
2013-5-4,73.9,61.2,52.1,50.0,46.4,39.0,87,61,37,30.28,30.01,12,3,17,0.00
2013-5-5,80.5,66.5,58.6,49.0,47.0,44.0,70,51,30,30.01,29.77,7,2,10,0.00
2013-5-6,80.1,65.0,55.8,52.0,48.9,45.0,77,58,33,29.86,29.74,8,1,11,0.00
2013-5-7,67.8,55.3,47.7,54.0,49.8,46.0,96,83,60,29.95,29.78,10,4,13,0.00
2013-5-8,64.6,54.3,49.0,53.0,49.7,47.0,95,85,65,30.14,29.96,10,2,11,0.00
2013-5-9,71.7,55.7,47.2,55.0,49.7,46.0,97,82,55,30.21,30.11,11,3,13,0.00
2013-5-10,70.1,55.7,47.0,58.0,50.0,46.0,98,82,60,30.21,30.11,7,2,11,0.00
2013-5-11,64.3,56.4,50.0,54.0,49.9,47.0,97,80,62,30.15,30.00,9,2,10,0.00
2013-5-12,60.4,56.8,53.6,60.0,56.4,53.0,100,98,95,30.06,29.98,6,1,7,0.00
2013-5-13,60.2,53.1,47.6,56.0,50.9,44.0,100,92,74,30.17,29.90,9,2,18,0.00
2013-5-14,64.8,54.0,47.2,48.0,44.9,40.0,97,73,42,30.22,30.12,5,1,8,0.00
2013-5-15,60.3,52.3,48.7,52.0,47.7,45.0,98,85,64,30.12,30.01,3,0,5,0.00
2013-5-16,65.2,54.2,49.1,55.0,51.4,48.0,99,91,65,30.01,29.89,4,1,6,0.00
2013-5-17,61.3,53.4,50.1,56.0,51.3,49.0,97,93,80,30.04,29.92,8,1,8,0.00
2013-5-18,62.0,53.4,50.0,55.0,51.4,49.0,99,93,73,30.26,30.04,3,0,7,0.00
2013-5-19,65.3,55.3,50.3,52.0,49.1,47.0,95,81,59,30.40,30.27,6,1,8,0.00
2013-5-20,62.9,54.3,47.1,52.0,48.7,45.0,96,82,63,30.34,29.92,7,2,8,0.00
2013-5-21,55.3,48.8,46.0,50.0,47.0,45.0,98,93,79,29.93,29.79,4,0,4,0.00
2013-5-22,61.1,51.1,45.8,49.0,46.3,44.0,97,84,62,29.95,29.84,4,1,6,0.00
2013-5-23,63.5,51.7,44.6,50.0,46.2,44.0,99,83,54,29.98,29.91,4,0,10,0.00
2013-5-24,64.3,53.4,46.5,49.0,46.3,44.0,91,78,53,30.02,29.96,5,1,9,0.00
2013-5-25,62.4,54.3,48.9,50.0,47.9,46.0,95,80,59,30.02,29.99,6,1,7,0.00
2013-5-26,55.8,51.6,48.3,54.0,50.6,47.0,98,96,91,29.99,29.93,2,0,3,0.00
2013-5-27,55.6,53.5,49.5,55.0,51.9,48.0,100,94,83,29.93,29.67,4,1,11,0.00
2013-5-28,58.0,53.1,50.7,56.0,51.9,50.0,99,95,86,29.85,29.72,3,0,7,0.00
2013-5-29,56.6,52.1,49.2,54.0,50.3,46.0,99,93,81,29.94,29.68,5,0,8,0.00
2013-5-30,63.4,53.7,48.9,52.0,48.6,44.0,94,83,66,30.22,29.95,5,1,8,0.00
2013-5-31,66.3,55.5,49.0,52.0,48.9,44.0,97,80,53,30.34,30.23,5,1,5,0.00
2013-6-1,64.8,56.0,50.3,53.0,48.9,44.0,91,77,65,30.25,30.09,4,1,7,0.00
2013-6-2,70.3,57.7,52.4,53.0,49.6,47.0,87,75,54,30.10,30.03,7,3,10,0.00
2013-6-3,69.5,58.0,50.7,55.0,51.3,48.0,93,79,56,30.12,30.05,5,1,7,0.00
2013-6-4,74.8,60.4,51.8,56.0,51.8,49.0,93,75,48,30.15,30.02,7,1,9,0.00
2013-6-5,71.4,60.8,53.9,58.0,53.7,48.0,92,78,62,30.10,30.00,8,2,9,0.00
2013-6-6,74.1,61.3,54.8,57.0,52.6,48.0,93,75,50,30.06,29.97,8,2,9,0.00
2013-6-7,68.1,57.1,51.2,56.0,51.1,47.0,97,81,64,30.12,29.98,8,2,9,0.00
2013-6-8,65.2,56.1,49.2,53.0,49.8,47.0,93,80,60,30.16,30.10,6,1,8,0.00
2013-6-9,70.2,57.2,49.9,53.0,48.5,44.0,95,74,43,30.10,30.02,3,1,8,0.00
2013-6-10,69.1,56.8,48.2,52.0,48.2,45.0,91,74,48,30.03,29.88,6,1,8,0.00
2013-6-11,71.1,57.8,51.8,52.0,48.4,45.0,86,72,48,30.09,29.91,3,0,5,0.03
2013-6-12,70.7,56.3,49.2,58.0,51.5,48.0,98,85,56,30.14,30.09,0,0,0,0.00
2013-6-13,74.5,56.8,48.5,56.0,50.8,47.0,97,81,48,30.19,30.14,0,0,3,0.00
2013-6-14,77.9,58.6,50.3,55.0,50.7,48.0,94,77,43,30.22,30.08,0,0,0,0.00
2013-6-15,73.9,58.9,49.6,58.0,52.3,48.0,97,80,53,30.08,29.94,0,0,0,0.00
2013-6-16,71.6,61.1,52.1,58.0,53.6,50.0,93,77,60,30.06,29.97,0,0,0,0.00
2013-6-17,78.4,61.5,53.1,56.0,53.3,50.0,94,76,45,30.06,29.90,0,0,0,0.00
2013-6-18,79.7,60.1,53.5,58.0,54.3,51.0,99,83,42,29.96,29.90,0,0,0,0.00
2013-6-19,75.6,60.5,51.2,56.0,51.6,47.0,95,74,48,29.97,29.89,0,0,2,0.00
2013-6-20,57.3,55.2,52.3,56.0,52.8,49.0,98,91,75,30.08,29.91,0,0,1,0.00
2013-6-21,79.5,59.3,51.4,60.0,54.4,51.0,99,85,50,30.17,30.08,0,0,2,0.00
2013-6-22,83.2,60.3,50.6,58.0,53.4,50.0,97,80,39,30.12,29.88,0,0,0,0.00
2013-6-23,61.4,58.4,55.1,59.0,55.8,53.0,97,91,81,29.88,29.60,0,0,0,0.00
2013-6-24,66.2,59.1,56.1,64.0,58.2,55.0,99,96,84,29.68,29.55,0,0,1,0.00
2013-6-25,71.2,60.9,55.1,62.0,57.4,54.0,99,88,68,29.81,29.66,0,0,0,0.00
2013-6-26,81.4,62.8,55.2,63.0,57.7,53.0,98,85,50,30.07,29.81,0,0,1,0.00
2013-6-27,74.9,61.6,56.3,66.0,59.2,55.0,99,92,71,30.21,30.04,0,0,1,0.00
2013-6-28,70.5,62.8,55.5,64.0,59.6,55.0,98,90,76,30.21,30.07,0,0,0,0.00
2013-6-29,61.6,60.9,59.8,61.0,59.7,58.0,98,96,94,30.10,30.08,0,0,0,0.00